Time;durP1;ratioP1;P1;durP2;ratioP2;P2;SDS_P1;SDS_P2;PMS_P1;PMS_P2;Temp;Humidity;BMP_temperature;BMP_pressure;BME280_temperature;BME280_humidity;BME280_pressure;Samples;Min_cycle;Max_cycle;Signal;HPM_P1;HPM_P2
2022/02/13 00:04:44;;;;;;;12.00;7.07;;;;;;;;;;4955153;29;20027;-79
2022/02/13 00:07:20;;;;;;;12.38;7.93;;;;;;;;;;4938698;29;20445;-78
2022/02/13 00:09:49;;;;;;;11.85;6.53;;;;;;;;;;4955151;29;20047;-78
2022/02/13 00:12:25;;;;;;;10.13;7.10;;;;;;;;;;4949996;29;20106;-78
2022/02/13 00:14:53;;;;;;;17.60;9.57;;;;;;;;;;4942669;29;20085;-78
2022/02/13 00:17:23;;;;;;;14.95;7.72;;;;;;;;;;4942948;29;20044;-78
2022/02/13 00:19:51;;;;;;;11.20;6.88;;;;;;;;;;4945069;29;20030;-78
2022/02/13 00:22:22;;;;;;;12.75;6.80;;;;;;;;;;4946353;29;20040;-78
2022/02/13 00:24:53;;;;;;;11.65;7.28;;;;;;;;;;4946326;29;20032;-78
2022/02/13 00:27:21;;;;;;;13.02;7.78;;;;;;;;;;4944415;29;20035;-78
2022/02/13 00:29:47;;;;;;;13.65;7.75;;;;;;;;;;4930011;29;20036;-78
2022/02/13 00:32:21;;;;;;;15.30;8.57;;;;;;;;;;4951217;28;20049;-78
2022/02/13 00:34:49;;;;;;;12.55;7.50;;;;;;;;;;4952068;29;20031;-78
2022/02/13 00:37:15;;;;;;;12.52;7.72;;;;;;;;;;4997207;28;20025;-78
2022/02/13 00:39:47;;;;;;;15.13;8.45;;;;;;;;;;5006208;28;20120;-78
2022/02/13 00:42:16;;;;;;;16.92;9.55;;;;;;;;;;5007677;28;20063;-79
2022/02/13 00:44:43;;;;;;;15.60;8.07;;;;;;;;;;4984543;28;20045;-78
2022/02/13 00:47:12;;;;;;;12.20;7.25;;;;;;;;;;4984733;28;20052;-78
2022/02/13 00:49:44;;;;;;;15.27;8.90;;;;;;;;;;5001770;28;20030;-79
2022/02/13 00:52:27;;;;;;;13.07;8.32;;;;;;;;;;5013954;28;20033;-79
2022/02/13 00:55:05;;;;;;;15.02;7.65;;;;;;;;;;5013311;28;20017;-79
2022/02/13 00:57:32;;;;;;;13.18;8.10;;;;;;;;;;5010981;28;20084;-79
2022/02/13 01:00:05;;;;;;;12.10;8.20;;;;;;;;;;5022129;28;20089;-78
2022/02/13 01:02:51;;;;;;;12.52;8.43;;;;;;;;;;5032817;28;20490;-79
2022/02/13 01:08:57;;;;;;;13.60;8.23;;;;;;;;;;4991521;28;20037;-79
2022/02/13 01:11:45;;;;;;;16.20;8.95;;;;;;;;;;4952163;29;20493;-78
2022/02/13 01:14:11;;;;;;;12.88;7.90;;;;;;;;;;4921382;28;20106;-79
2022/02/13 01:16:49;;;;;;;13.60;8.23;;;;;;;;;;4970499;29;20043;-79
2022/02/13 01:19:22;;;;;;;11.82;7.82;;;;;;;;;;4971347;29;20031;-79
2022/02/13 01:22:04;;;;;;;15.38;9.20;;;;;;;;;;4964926;29;20051;-78
2022/02/13 01:24:32;;;;;;;15.40;8.68;;;;;;;;;;4967189;29;20385;-79
2022/02/13 01:27:12;;;;;;;14.25;7.70;;;;;;;;;;4948651;29;20075;-79
2022/02/13 01:29:38;;;;;;;14.30;9.10;;;;;;;;;;4950059;29;20036;-79
2022/02/13 01:32:25;;;;;;;14.52;8.55;;;;;;;;;;4955331;29;20023;-79
2022/02/13 01:34:53;;;;;;;11.38;7.85;;;;;;;;;;4965097;28;20091;-78
2022/02/13 01:37:21;;;;;;;15.95;8.95;;;;;;;;;;4947256;29;20106;-79
2022/02/13 01:39:53;;;;;;;14.60;8.45;;;;;;;;;;4964136;29;20046;-79
2022/02/13 01:42:19;;;;;;;12.63;7.35;;;;;;;;;;4983931;28;20068;-81
2022/02/13 01:44:49;;;;;;;15.05;8.02;;;;;;;;;;5008711;28;20037;-79
2022/02/13 01:47:15;;;;;;;12.98;8.13;;;;;;;;;;5028058;28;20052;-78
2022/02/13 01:52:45;;;;;;;13.25;7.65;;;;;;;;;;4985388;28;20065;-79
2022/02/13 01:55:18;;;;;;;13.18;8.27;;;;;;;;;;5013101;28;20045;-79
2022/02/13 01:58:15;;;;;;;13.30;7.93;;;;;;;;;;5031116;28;20065;-78
2022/02/13 02:00:57;;;;;;;14.23;8.52;;;;;;;;;;5022148;28;20078;-79
2022/02/13 02:03:23;;;;;;;12.63;7.63;;;;;;;;;;5004315;28;20044;-78
2022/02/13 02:05:53;;;;;;;11.52;7.75;;;;;;;;;;5007923;28;20038;-79
2022/02/13 02:08:37;;;;;;;14.35;7.97;;;;;;;;;;5014684;28;20056;-79
2022/02/13 02:11:05;;;;;;;13.98;7.97;;;;;;;;;;5021018;28;20034;-80
2022/02/13 02:13:31;;;;;;;11.15;7.85;;;;;;;;;;5020282;28;20023;-78
2022/02/13 02:15:58;;;;;;;12.82;7.80;;;;;;;;;;5004101;28;20033;-82
2022/02/13 02:18:24;;;;;;;11.25;7.50;;;;;;;;;;4982441;28;20019;-81
2022/02/13 02:20:52;;;;;;;13.55;7.25;;;;;;;;;;5018040;28;20033;-80
2022/02/13 02:23:19;;;;;;;13.02;8.32;;;;;;;;;;5000103;28;20030;-82
2022/02/13 02:25:47;;;;;;;13.10;8.80;;;;;;;;;;5000962;28;20050;-82
2022/02/13 02:28:13;;;;;;;11.63;7.72;;;;;;;;;;5001160;28;20033;-79
2022/02/13 02:30:40;;;;;;;13.45;8.50;;;;;;;;;;5019505;28;20026;-80
2022/02/13 02:33:11;;;;;;;12.38;8.07;;;;;;;;;;5005757;28;20030;-79
2022/02/13 02:35:37;;;;;;;13.20;8.05;;;;;;;;;;5008803;28;20565;-78
2022/02/13 02:38:04;;;;;;;15.75;9.68;;;;;;;;;;5015650;28;20053;-77
2022/02/13 02:40:31;;;;;;;11.70;7.75;;;;;;;;;;5021651;28;20068;-77
2022/02/13 02:43:03;;;;;;;14.68;9.20;;;;;;;;;;5023094;28;20044;-78
2022/02/13 02:45:29;;;;;;;13.75;8.93;;;;;;;;;;5020737;28;20034;-78
2022/02/13 02:47:59;;;;;;;15.07;8.63;;;;;;;;;;5001661;28;20042;-78
2022/02/13 02:50:25;;;;;;;15.98;8.38;;;;;;;;;;4999603;28;20528;-79
2022/02/13 02:52:51;;;;;;;13.63;9.23;;;;;;;;;;4997256;28;20045;-80
2022/02/13 02:55:18;;;;;;;16.00;9.18;;;;;;;;;;4998143;28;20072;-78
2022/02/13 02:57:44;;;;;;;14.10;8.65;;;;;;;;;;4996884;28;20060;-80
2022/02/13 03:00:10;;;;;;;17.33;10.38;;;;;;;;;;4997473;28;20038;-79
2022/02/13 03:02:37;;;;;;;16.63;9.48;;;;;;;;;;4997888;28;20041;-78
2022/02/13 03:05:04;;;;;;;17.17;9.77;;;;;;;;;;4999808;28;20479;-79
2022/02/13 03:07:30;;;;;;;14.55;8.85;;;;;;;;;;4994703;28;20498;-81
2022/02/13 03:09:59;;;;;;;18.15;8.93;;;;;;;;;;4999728;28;20407;-78
2022/02/13 03:12:26;;;;;;;17.30;9.80;;;;;;;;;;5000322;28;20071;-78
2022/02/13 03:14:52;;;;;;;17.02;10.48;;;;;;;;;;5019321;28;20022;-77
2022/02/13 03:17:19;;;;;;;17.58;11.20;;;;;;;;;;5016667;28;20145;-78
2022/02/13 03:19:45;;;;;;;20.40;11.63;;;;;;;;;;5015591;28;20050;-78
2022/02/13 03:22:11;;;;;;;20.73;10.98;;;;;;;;;;5015712;28;20037;-79
2022/02/13 03:24:37;;;;;;;19.05;10.98;;;;;;;;;;5016343;28;20061;-78
2022/02/13 03:27:04;;;;;;;17.38;11.00;;;;;;;;;;4997969;28;20065;-79
2022/02/13 03:29:30;;;;;;;18.98;11.40;;;;;;;;;;4996964;28;20021;-79
2022/02/13 03:31:56;;;;;;;18.55;11.10;;;;;;;;;;4998630;28;20038;-83
2022/02/13 03:34:24;;;;;;;19.90;11.25;;;;;;;;;;5020443;28;20062;-80
2022/02/13 03:36:51;;;;;;;18.42;11.85;;;;;;;;;;5003466;28;20030;-78
2022/02/13 03:39:23;;;;;;;19.15;11.75;;;;;;;;;;4991540;28;20146;-76
2022/02/13 03:42:00;;;;;;;20.53;11.87;;;;;;;;;;5024308;28;20038;-79
2022/02/13 03:44:28;;;;;;;19.50;11.55;;;;;;;;;;5011687;28;20030;-77
2022/02/13 03:46:55;;;;;;;17.27;11.82;;;;;;;;;;4995719;28;20077;-76
2022/02/13 03:49:24;;;;;;;18.98;11.25;;;;;;;;;;5008518;28;20049;-77
2022/02/13 03:51:50;;;;;;;20.85;12.93;;;;;;;;;;5008604;28;20081;-78
2022/02/13 03:54:19;;;;;;;20.45;10.63;;;;;;;;;;4999169;28;20033;-78
2022/02/13 03:56:48;;;;;;;19.55;11.82;;;;;;;;;;5004945;28;20073;-77
2022/02/13 03:59:15;;;;;;;21.13;12.45;;;;;;;;;;5018646;28;20482;-78
2022/02/13 04:01:41;;;;;;;17.38;11.75;;;;;;;;;;5004585;28;20060;-78
2022/02/13 04:04:10;;;;;;;21.35;12.02;;;;;;;;;;5003379;28;20058;-83
2022/02/13 04:06:37;;;;;;;20.23;12.48;;;;;;;;;;5019407;28;20364;-80
2022/02/13 04:09:04;;;;;;;20.60;12.05;;;;;;;;;;5001269;28;20069;-79
2022/02/13 04:11:31;;;;;;;25.58;14.30;;;;;;;;;;5019103;28;20037;-77
2022/02/13 04:13:59;;;;;;;21.52;12.50;;;;;;;;;;5000948;28;20033;-80
2022/02/13 04:16:25;;;;;;;22.05;12.85;;;;;;;;;;5004288;28;20113;-77
2022/02/13 04:18:52;;;;;;;23.73;11.88;;;;;;;;;;5003623;28;20038;-81
2022/02/13 04:21:19;;;;;;;19.60;12.38;;;;;;;;;;5020216;28;20029;-77
2022/02/13 04:23:45;;;;;;;21.83;11.70;;;;;;;;;;5018337;28;20116;-77
2022/02/13 04:26:11;;;;;;;21.13;11.75;;;;;;;;;;5004258;28;20041;-77
2022/02/13 04:28:38;;;;;;;24.20;11.90;;;;;;;;;;5004547;28;20116;-77
2022/02/13 04:31:04;;;;;;;22.88;12.32;;;;;;;;;;5004026;28;20073;-77
2022/02/13 04:33:30;;;;;;;32.17;14.65;;;;;;;;;;5004554;28;20018;-78
2022/02/13 04:35:59;;;;;;;32.28;17.05;;;;;;;;;;5019972;28;20034;-78
2022/02/13 04:38:30;;;;;;;36.15;18.20;;;;;;;;;;5019699;28;20033;-78
2022/02/13 04:40:56;;;;;;;25.60;14.60;;;;;;;;;;5005113;28;20084;-77
2022/02/13 04:43:23;;;;;;;24.08;13.55;;;;;;;;;;5018302;28;20431;-77
2022/02/13 04:45:49;;;;;;;24.20;12.48;;;;;;;;;;5003876;28;20049;-78
2022/02/13 04:48:16;;;;;;;18.80;11.95;;;;;;;;;;5005171;28;20029;-78
2022/02/13 04:50:42;;;;;;;21.40;11.77;;;;;;;;;;5003218;28;20025;-78
2022/02/13 04:53:10;;;;;;;21.27;11.98;;;;;;;;;;5002418;28;20025;-77
2022/02/13 04:55:37;;;;;;;24.33;12.20;;;;;;;;;;5019363;28;20044;-77
2022/02/13 04:58:04;;;;;;;20.75;11.95;;;;;;;;;;5019895;28;20052;-77
2022/02/13 05:00:30;;;;;;;21.08;12.35;;;;;;;;;;5008955;28;20033;-78
2022/02/13 05:02:56;;;;;;;19.55;11.90;;;;;;;;;;5020310;28;20030;-76
2022/02/13 05:05:22;;;;;;;18.33;11.88;;;;;;;;;;5018448;28;20041;-78
2022/02/13 05:07:51;;;;;;;21.33;12.73;;;;;;;;;;5018616;28;20029;-78
2022/02/13 05:10:17;;;;;;;22.13;12.48;;;;;;;;;;5001114;28;20049;-78
2022/02/13 05:12:43;;;;;;;21.88;12.32;;;;;;;;;;5004312;28;20065;-77
2022/02/13 05:15:09;;;;;;;19.40;11.63;;;;;;;;;;5017160;28;20371;-78
2022/02/13 05:17:38;;;;;;;18.73;11.10;;;;;;;;;;5004739;28;20042;-79
2022/02/13 05:20:05;;;;;;;17.58;11.60;;;;;;;;;;5024418;28;20056;-79
2022/02/13 05:22:31;;;;;;;17.27;10.80;;;;;;;;;;5021303;28;20105;-78
2022/02/13 05:24:57;;;;;;;19.88;11.70;;;;;;;;;;5001485;28;20117;-78
2022/02/13 05:27:24;;;;;;;18.60;12.05;;;;;;;;;;4983305;28;20080;-77
2022/02/13 05:29:50;;;;;;;19.98;12.38;;;;;;;;;;4998590;28;20033;-78
2022/02/13 05:32:18;;;;;;;19.35;12.13;;;;;;;;;;5020462;28;20026;-77
2022/02/13 05:34:45;;;;;;;18.00;11.15;;;;;;;;;;4988842;28;20025;-78
2022/02/13 05:37:14;;;;;;;19.65;12.55;;;;;;;;;;5025826;28;20046;-78
2022/02/13 05:39:43;;;;;;;15.65;11.77;;;;;;;;;;4998187;28;20034;-78
2022/02/13 05:42:12;;;;;;;22.10;11.73;;;;;;;;;;5021827;28;20026;-77
2022/02/13 05:44:39;;;;;;;20.42;12.07;;;;;;;;;;5017158;28;20045;-78
2022/02/13 05:47:05;;;;;;;17.83;12.02;;;;;;;;;;5017481;28;20038;-77
2022/02/13 05:49:31;;;;;;;21.15;12.25;;;;;;;;;;4999906;28;20018;-77
2022/02/13 05:51:57;;;;;;;18.25;11.43;;;;;;;;;;5017061;28;20038;-77
2022/02/13 05:54:24;;;;;;;15.23;11.25;;;;;;;;;;5016398;28;20058;-77
2022/02/13 05:56:53;;;;;;;18.00;11.25;;;;;;;;;;5003507;28;20040;-78
2022/02/13 05:59:19;;;;;;;17.63;11.35;;;;;;;;;;5005226;28;20495;-75
2022/02/13 06:01:48;;;;;;;20.58;12.25;;;;;;;;;;5022388;28;20026;-76
2022/02/13 06:04:30;;;;;;;20.30;12.52;;;;;;;;;;5029747;28;20125;-76
2022/02/13 06:06:56;;;;;;;18.90;11.80;;;;;;;;;;5029087;28;20044;-76
2022/02/13 06:09:23;;;;;;;20.42;12.57;;;;;;;;;;5029437;28;20052;-76
2022/02/13 06:11:50;;;;;;;19.58;11.52;;;;;;;;;;5031361;28;20040;-75
2022/02/13 06:14:41;;;;;;;18.70;12.05;;;;;;;;;;5033539;28;20056;-78
2022/02/13 06:17:07;;;;;;;21.10;11.90;;;;;;;;;;5022143;28;20046;-73
2022/02/13 06:19:34;;;;;;;17.50;11.82;;;;;;;;;;5027516;28;20040;-74
2022/02/13 06:22:28;;;;;;;20.42;11.27;;;;;;;;;;5027623;28;20029;-79
2022/02/13 06:24:54;;;;;;;17.52;10.90;;;;;;;;;;5030676;28;20535;-74
2022/02/13 06:27:29;;;;;;;19.15;11.52;;;;;;;;;;5028258;28;20488;-77
2022/02/13 06:29:55;;;;;;;17.05;10.80;;;;;;;;;;5027939;28;20022;-75
2022/02/13 06:32:30;;;;;;;18.00;11.25;;;;;;;;;;5015182;28;20026;-73
2022/02/13 06:34:59;;;;;;;16.95;10.93;;;;;;;;;;5015935;28;20042;-76
2022/02/13 06:37:31;;;;;;;19.40;10.95;;;;;;;;;;5028005;28;20010;-75
2022/02/13 06:40:05;;;;;;;19.50;11.82;;;;;;;;;;5028812;28;20030;-76
2022/02/13 06:42:31;;;;;;;19.38;10.90;;;;;;;;;;5012863;28;20033;-75
2022/02/13 06:44:57;;;;;;;16.02;11.27;;;;;;;;;;5026812;28;20096;-75
2022/02/13 06:47:30;;;;;;;15.77;10.60;;;;;;;;;;5015642;28;20065;-73
2022/02/13 06:49:56;;;;;;;15.50;10.50;;;;;;;;;;5016643;28;20077;-75
2022/02/13 06:52:28;;;;;;;21.15;11.05;;;;;;;;;;5023671;28;20026;-78
2022/02/13 06:54:56;;;;;;;20.58;11.05;;;;;;;;;;5006173;28;20030;-76
2022/02/13 06:57:22;;;;;;;19.95;10.90;;;;;;;;;;5022813;28;20464;-76
2022/02/13 06:59:48;;;;;;;16.70;10.10;;;;;;;;;;5026124;28;20093;-79
2022/02/13 07:02:14;;;;;;;19.33;9.80;;;;;;;;;;5019280;28;20057;-77
2022/02/13 07:04:43;;;;;;;18.23;11.20;;;;;;;;;;5005236;28;20038;-77
2022/02/13 07:07:10;;;;;;;17.15;10.75;;;;;;;;;;5031056;28;20041;-75
2022/02/13 07:09:39;;;;;;;18.45;11.55;;;;;;;;;;5031525;28;20076;-77
2022/02/13 07:12:09;;;;;;;19.90;12.63;;;;;;;;;;5023330;28;20028;-75
2022/02/13 07:14:38;;;;;;;15.98;10.23;;;;;;;;;;5023465;28;20484;-77
2022/02/13 07:17:05;;;;;;;15.77;9.82;;;;;;;;;;5030717;28;20018;-79
2022/02/13 07:19:32;;;;;;;14.65;9.40;;;;;;;;;;4974168;28;20036;-74
2022/02/13 07:22:07;;;;;;;13.90;9.43;;;;;;;;;;5021341;28;20044;-78
2022/02/13 07:24:43;;;;;;;15.80;9.45;;;;;;;;;;5025988;28;20026;-75
2022/02/13 07:27:18;;;;;;;14.77;9.80;;;;;;;;;;5032478;28;20069;-76
2022/02/13 07:30:02;;;;;;;16.50;10.32;;;;;;;;;;5025036;28;20037;-75
2022/02/13 07:32:30;;;;;;;14.18;8.68;;;;;;;;;;5011399;28;20067;-76
2022/02/13 07:34:59;;;;;;;14.70;8.25;;;;;;;;;;5015547;28;20101;-78
2022/02/13 07:37:26;;;;;;;14.32;8.65;;;;;;;;;;5028977;28;20081;-77
2022/02/13 07:39:56;;;;;;;14.60;8.73;;;;;;;;;;4968212;28;21599;-78
2022/02/13 07:42:24;;;;;;;11.80;8.32;;;;;;;;;;5032369;28;20030;-77
2022/02/13 07:44:50;;;;;;;17.40;10.05;;;;;;;;;;5027445;28;20026;-78
2022/02/13 07:47:19;;;;;;;16.85;8.95;;;;;;;;;;5027174;28;20042;-76
2022/02/13 07:49:45;;;;;;;14.48;9.30;;;;;;;;;;5022459;28;20041;-77
2022/02/13 07:52:11;;;;;;;14.00;9.18;;;;;;;;;;5024615;28;20037;-78
2022/02/13 07:54:44;;;;;;;16.48;9.88;;;;;;;;;;5027929;28;20018;-78
2022/02/13 07:57:13;;;;;;;13.43;8.40;;;;;;;;;;5016537;28;20029;-78
2022/02/13 07:59:44;;;;;;;13.32;8.23;;;;;;;;;;5023682;28;20084;-76
2022/02/13 08:02:19;;;;;;;16.00;8.73;;;;;;;;;;5028045;28;20048;-78
2022/02/13 08:04:49;;;;;;;12.75;8.18;;;;;;;;;;5027405;28;20017;-77
2022/02/13 08:07:19;;;;;;;13.95;8.20;;;;;;;;;;5030310;28;20229;-80
2022/02/13 08:19:15;;;;;;;14.10;8.52;;;;;;;;;;4853002;26;20039;-78
2022/02/13 08:22:22;;;;;;;14.18;7.75;;;;;;;;;;4923361;28;20050;-79
2022/02/13 08:24:49;;;;;;;12.05;8.30;;;;;;;;;;4920859;29;20133;-72
2022/02/13 08:27:15;;;;;;;13.43;7.90;;;;;;;;;;4921133;29;20040;-74
2022/02/13 08:29:42;;;;;;;11.27;7.70;;;;;;;;;;4928570;28;20048;-74
2022/02/13 08:32:23;;;;;;;13.90;8.18;;;;;;;;;;4920637;29;20044;-80
2022/02/13 08:34:54;;;;;;;13.05;8.18;;;;;;;;;;4908749;29;20072;-77
2022/02/13 08:37:20;;;;;;;13.80;8.70;;;;;;;;;;4914208;29;20040;-76
2022/02/13 08:42:28;;;;;;;11.60;7.85;;;;;;;;;;5317418;23;20136;-76
2022/02/13 08:44:54;;;;;;;13.90;9.15;;;;;;;;;;5000426;28;20030;-75
2022/02/13 08:47:31;;;;;;;14.65;8.13;;;;;;;;;;5005187;28;20037;-74
2022/02/13 08:50:02;;;;;;;13.25;8.55;;;;;;;;;;4993856;28;20432;-75
2022/02/13 08:52:30;;;;;;;13.50;7.88;;;;;;;;;;5004379;28;20026;-77
2022/02/13 08:54:56;;;;;;;14.25;8.75;;;;;;;;;;5008498;28;20022;-77
2022/02/13 08:57:54;;;;;;;23.35;17.75;;;;;;;;;;5011460;28;20041;-77
2022/02/13 09:00:26;;;;;;;14.23;8.82;;;;;;;;;;5005700;28;20026;-75
2022/02/13 09:02:52;;;;;;;12.15;8.40;;;;;;;;;;5007231;28;20057;-75
2022/02/13 09:05:21;;;;;;;15.25;8.20;;;;;;;;;;5003280;28;20044;-76
2022/02/13 09:07:49;;;;;;;13.20;8.68;;;;;;;;;;5002660;28;20083;-76
2022/02/13 09:10:16;;;;;;;13.55;8.98;;;;;;;;;;4987394;28;20057;-76
2022/02/13 09:12:44;;;;;;;17.73;10.80;;;;;;;;;;5263246;23;20103;-73
2022/02/13 09:15:12;;;;;;;19.77;9.63;;;;;;;;;;5017881;28;20049;-76
2022/02/13 09:17:38;;;;;;;14.77;7.95;;;;;;;;;;5017728;28;20038;-74
2022/02/13 09:20:05;;;;;;;13.18;8.57;;;;;;;;;;5000075;28;20092;-75
2022/02/13 09:22:40;;;;;;;15.15;8.38;;;;;;;;;;4997961;28;20030;-78
2022/02/13 09:25:08;;;;;;;11.88;6.70;;;;;;;;;;5002194;28;20027;-76
2022/02/13 09:27:35;;;;;;;12.93;8.27;;;;;;;;;;5006599;28;20038;-78
2022/02/13 09:30:03;;;;;;;13.77;8.25;;;;;;;;;;4984606;28;20069;-77
2022/02/13 09:32:29;;;;;;;11.63;7.93;;;;;;;;;;5007649;28;20369;-76
2022/02/13 09:34:55;;;;;;;11.57;8.10;;;;;;;;;;5007132;28;20029;-76
2022/02/13 09:37:24;;;;;;;11.68;8.32;;;;;;;;;;5010749;28;20034;-77
2022/02/13 09:39:54;;;;;;;13.02;8.35;;;;;;;;;;4989162;28;20200;-78
2022/02/13 09:42:24;;;;;;;12.07;8.15;;;;;;;;;;5009679;28;20034;-77
2022/02/13 09:44:51;;;;;;;11.38;8.35;;;;;;;;;;4983213;28;20030;-77
2022/02/13 09:47:21;;;;;;;13.02;8.07;;;;;;;;;;5000607;28;20125;-77
2022/02/13 09:49:48;;;;;;;16.38;8.70;;;;;;;;;;5001796;28;20022;-76
2022/02/13 09:52:15;;;;;;;13.70;8.15;;;;;;;;;;4997772;28;20025;-76
2022/02/13 09:54:41;;;;;;;11.57;8.23;;;;;;;;;;4993341;28;20109;-76
2022/02/13 09:59:53;;;;;;;13.55;8.95;;;;;;;;;;4993992;28;20036;-76
2022/02/13 10:02:33;;;;;;;12.75;8.15;;;;;;;;;;4992900;28;20058;-75
2022/02/13 10:05:01;;;;;;;12.18;7.63;;;;;;;;;;4995776;28;20019;-77
2022/02/13 10:07:27;;;;;;;17.65;9.50;;;;;;;;;;5000215;28;20123;-78
2022/02/13 10:10:02;;;;;;;15.85;9.23;;;;;;;;;;5011730;28;20022;-78
2022/02/13 10:12:31;;;;;;;17.05;9.43;;;;;;;;;;4983046;28;20033;-75
2022/02/13 10:14:58;;;;;;;13.77;8.30;;;;;;;;;;4994189;28;20065;-75
2022/02/13 10:17:26;;;;;;;12.25;8.10;;;;;;;;;;4991961;28;20061;-75
2022/02/13 10:19:53;;;;;;;14.80;9.15;;;;;;;;;;4993942;28;20061;-76
2022/02/13 10:22:36;;;;;;;16.02;10.20;;;;;;;;;;5001260;28;20119;-78
2022/02/13 10:25:24;;;;;;;13.32;8.45;;;;;;;;;;5018726;28;20018;-79
2022/02/13 10:27:57;;;;;;;12.48;9.02;;;;;;;;;;4963308;28;20038;-79
2022/02/13 10:30:38;;;;;;;14.07;9.18;;;;;;;;;;5018847;28;20015;-75
2022/02/13 10:33:18;;;;;;;20.95;10.90;;;;;;;;;;4988708;28;20041;-76
2022/02/13 10:36:04;;;;;;;17.00;10.00;;;;;;;;;;4995763;28;20096;-75
2022/02/13 10:38:31;;;;;;;14.98;9.65;;;;;;;;;;4987681;28;20034;-73
2022/02/13 10:41:29;;;;;;;12.55;9.10;;;;;;;;;;4993450;28;20030;-73
2022/02/13 10:43:59;;;;;;;15.88;9.02;;;;;;;;;;4879481;29;20049;-73
2022/02/13 10:46:29;;;;;;;12.20;9.00;;;;;;;;;;4880326;29;20049;-74
2022/02/13 10:48:56;;;;;;;11.82;8.20;;;;;;;;;;4879246;29;20104;-73
2022/02/13 10:51:23;;;;;;;15.27;8.60;;;;;;;;;;4882566;29;20149;-73
2022/02/13 10:53:49;;;;;;;11.35;8.25;;;;;;;;;;4882201;29;20245;-76
2022/02/13 10:56:15;;;;;;;15.45;8.57;;;;;;;;;;4881468;29;20064;-74
2022/02/13 10:58:41;;;;;;;13.60;9.20;;;;;;;;;;4882218;29;20521;-75
2022/02/13 11:01:08;;;;;;;15.77;9.20;;;;;;;;;;4881753;29;20418;-75
2022/02/13 11:03:37;;;;;;;15.55;9.23;;;;;;;;;;4880401;29;20043;-77
2022/02/13 11:06:04;;;;;;;14.43;9.52;;;;;;;;;;4884200;29;20097;-75
2022/02/13 11:08:41;;;;;;;12.02;8.65;;;;;;;;;;4896000;29;20037;-76
2022/02/13 11:11:30;;;;;;;11.90;8.80;;;;;;;;;;4902412;29;20010;-80
2022/02/13 11:14:36;;;;;;;13.98;9.15;;;;;;;;;;4897579;29;20064;-80
2022/02/13 11:17:37;;;;;;;12.43;9.00;;;;;;;;;;4887977;29;20038;-83
2022/02/13 11:20:18;;;;;;;14.27;9.35;;;;;;;;;;4963886;28;20039;-80
2022/02/13 11:22:57;;;;;;;15.02;10.20;;;;;;;;;;4975936;28;20051;-79
2022/02/13 11:25:46;;;;;;;14.35;9.32;;;;;;;;;;5000153;28;20037;-79
2022/02/13 11:28:27;;;;;;;10.88;8.60;;;;;;;;;;5007157;28;20030;-79
2022/02/13 11:31:11;;;;;;;14.55;8.77;;;;;;;;;;4994060;28;20090;-77
2022/02/13 11:34:14;;;;;;;16.45;9.02;;;;;;;;;;4996810;28;20034;-79
2022/02/13 11:36:49;;;;;;;17.10;9.70;;;;;;;;;;4922771;29;20028;-80
2022/02/13 11:39:46;;;;;;;16.02;9.75;;;;;;;;;;4952299;29;20016;-79
2022/02/13 11:42:19;;;;;;;14.70;8.95;;;;;;;;;;5177346;23;20054;-79
2022/02/13 11:44:59;;;;;;;18.92;9.80;;;;;;;;;;5005106;28;20070;-75
2022/02/13 11:52:52;;;;;;;16.27;10.98;;;;;;;;;;5292320;23;20055;-73
2022/02/13 11:55:18;;;;;;;16.52;9.60;;;;;;;;;;4995412;28;20073;-74
2022/02/13 11:58:03;;;;;;;15.32;9.82;;;;;;;;;;5005384;28;20026;-78
2022/02/13 12:01:05;;;;;;;15.93;9.38;;;;;;;;;;4980701;28;20031;-75
2022/02/13 12:03:34;;;;;;;15.70;10.13;;;;;;;;;;4895527;29;20037;-76
2022/02/13 12:06:24;;;;;;;15.02;9.57;;;;;;;;;;4914654;29;20053;-77
2022/02/13 12:08:58;;;;;;;14.43;9.65;;;;;;;;;;4834200;29;20042;-78
2022/02/13 12:11:37;;;;;;;12.70;9.35;;;;;;;;;;4837122;29;20112;-79
2022/02/13 12:22:26;;;;;;;19.48;14.40;;;;;;;;;;5107482;23;20090;-79
2022/02/13 12:25:32;;;;;;;14.38;11.13;;;;;;;;;;4914199;29;20084;-77
2022/02/13 12:28:11;;;;;;;16.48;10.48;;;;;;;;;;4928754;29;20040;-77
2022/02/13 12:39:17;;;;;;;13.63;9.68;;;;;;;;;;5368135;23;20305;-76
2022/02/13 12:41:52;;;;;;;14.57;9.60;;;;;;;;;;5010425;28;20018;-77
2022/02/13 12:44:31;;;;;;;15.98;9.77;;;;;;;;;;5002982;28;20066;-79
2022/02/13 12:49:47;;;;;;;15.88;9.95;;;;;;;;;;5131781;23;20090;-78
2022/02/13 12:52:15;;;;;;;14.07;9.77;;;;;;;;;;5010193;28;20033;-74
2022/02/13 12:54:47;;;;;;;12.40;9.00;;;;;;;;;;5010368;28;20034;-77
2022/02/13 12:57:23;;;;;;;15.37;9.77;;;;;;;;;;5026613;28;20022;-78
2022/02/13 12:59:52;;;;;;;15.55;10.40;;;;;;;;;;4996708;28;20033;-77
2022/02/13 13:02:25;;;;;;;33.83;19.38;;;;;;;;;;4966175;28;20051;-78
2022/02/13 13:04:53;;;;;;;44.53;28.25;;;;;;;;;;4952667;29;20119;-77
2022/02/13 13:07:32;;;;;;;15.75;10.43;;;;;;;;;;4948592;29;20051;-77
2022/02/13 13:10:19;;;;;;;14.60;9.98;;;;;;;;;;4950661;29;20054;-77
2022/02/13 13:12:50;;;;;;;17.13;10.32;;;;;;;;;;4967810;28;20036;-77
2022/02/13 13:15:25;;;;;;;17.15;9.85;;;;;;;;;;4967734;29;20030;-77
2022/02/13 13:18:05;;;;;;;14.80;10.10;;;;;;;;;;4965722;28;20110;-77
2022/02/13 13:20:47;;;;;;;17.33;10.48;;;;;;;;;;4936898;29;20027;-79
2022/02/13 13:24:05;;;;;;;12.35;9.05;;;;;;;;;;4956347;29;20394;-77
2022/02/13 13:26:51;;;;;;;17.35;11.35;;;;;;;;;;4887300;29;20041;-78
2022/02/13 13:29:22;;;;;;;14.52;9.57;;;;;;;;;;4895625;29;20130;-78
2022/02/13 13:32:18;;;;;;;19.02;10.18;;;;;;;;;;4891401;29;20060;-78
2022/02/13 13:34:56;;;;;;;13.57;8.60;;;;;;;;;;4854695;29;20042;-78
2022/02/13 13:37:26;;;;;;;18.45;11.32;;;;;;;;;;4862949;29;20038;-78
2022/02/13 13:40:20;;;;;;;14.30;9.90;;;;;;;;;;4883703;29;20059;-78
2022/02/13 13:42:47;;;;;;;18.58;10.68;;;;;;;;;;4873543;29;20098;-78
2022/02/13 13:45:22;;;;;;;14.18;9.70;;;;;;;;;;4873960;29;20042;-75
2022/02/13 13:47:59;;;;;;;13.93;10.02;;;;;;;;;;4872232;29;20062;-76
2022/02/13 14:06:18;;;;;;;18.25;11.27;;;;;;;;;;5861768;23;20043;-79
2022/02/13 14:08:44;;;;;;;14.55;10.20;;;;;;;;;;4981665;28;20485;-76
2022/02/13 14:11:11;;;;;;;17.95;11.05;;;;;;;;;;4982720;28;20035;-74
2022/02/13 14:13:39;;;;;;;15.23;10.02;;;;;;;;;;4980864;28;20058;-75
2022/02/13 14:21:35;;;;;;;15.20;11.02;;;;;;;;;;5979461;23;20023;-78
2022/02/13 14:24:05;;;;;;;14.25;10.75;;;;;;;;;;5011201;28;20573;-79
2022/02/13 14:26:34;;;;;;;21.55;11.80;;;;;;;;;;5010833;28;20038;-77
2022/02/13 14:31:44;;;;;;;18.65;12.40;;;;;;;;;;5483952;23;20516;-77
2022/02/13 14:34:38;;;;;;;18.88;12.38;;;;;;;;;;4994034;28;20034;-78
2022/02/13 14:44:51;;;;;;;32.90;23.70;;;;;;;;;;4881068;26;20049;-78
2022/02/13 15:03:00;;;;;;;20.02;12.15;;;;;;;;;;5273847;23;20054;-79
2022/02/13 15:05:43;;;;;;;21.17;11.77;;;;;;;;;;5026615;28;20037;-78
2022/02/13 15:08:09;;;;;;;17.60;12.13;;;;;;;;;;5007615;28;20103;-76
2022/02/13 15:13:55;;;;;;;17.08;11.85;;;;;;;;;;5018810;28;20052;-75
2022/02/13 15:16:27;;;;;;;19.42;12.13;;;;;;;;;;4986094;28;20038;-78
2022/02/13 15:18:58;;;;;;;19.20;12.73;;;;;;;;;;4993582;28;20037;-77
2022/02/13 15:21:27;;;;;;;24.80;14.68;;;;;;;;;;5009976;28;20027;-73
2022/02/13 15:24:08;;;;;;;22.48;14.45;;;;;;;;;;5008553;28;20034;-79
2022/02/13 15:37:20;;;;;;;21.10;12.98;;;;;;;;;;5491003;23;20133;-74
2022/02/13 15:39:55;;;;;;;16.60;11.52;;;;;;;;;;4992946;28;20038;-75
2022/02/13 15:42:21;;;;;;;18.42;11.45;;;;;;;;;;4993513;28;20472;-75
2022/02/13 15:44:47;;;;;;;16.65;11.38;;;;;;;;;;4995736;28;20098;-74
2022/02/13 15:47:13;;;;;;;14.55;10.82;;;;;;;;;;4981635;28;20096;-79
2022/02/13 15:49:42;;;;;;;14.40;10.35;;;;;;;;;;4996662;28;20030;-76
2022/02/13 15:52:08;;;;;;;20.83;12.93;;;;;;;;;;5006784;28;20053;-74
2022/02/13 15:57:45;;;;;;;17.13;11.88;;;;;;;;;;5088780;23;20061;-78
2022/02/13 16:00:13;;;;;;;17.20;11.40;;;;;;;;;;5009611;28;20073;-75
2022/02/13 16:02:39;;;;;;;15.98;10.98;;;;;;;;;;4984732;28;20389;-77
2022/02/13 16:05:07;;;;;;;18.10;12.63;;;;;;;;;;4981209;28;20030;-75
2022/02/13 16:07:33;;;;;;;16.00;10.27;;;;;;;;;;4983782;28;20039;-75
2022/02/13 16:09:59;;;;;;;20.33;12.07;;;;;;;;;;4984231;28;20030;-74
2022/02/13 16:12:25;;;;;;;15.00;10.75;;;;;;;;;;4986554;28;20022;-70
2022/02/13 16:15:15;;;;;;;19.35;11.85;;;;;;;;;;5005830;28;20100;-77
2022/02/13 16:17:44;;;;;;;21.65;11.48;;;;;;;;;;4995754;28;20038;-77
2022/02/13 16:20:28;;;;;;;18.85;12.57;;;;;;;;;;4954167;29;20103;-78
2022/02/13 16:28:02;;;;;;;15.48;11.68;;;;;;;;;;5028221;28;20056;-73
2022/02/13 16:30:38;;;;;;;19.73;13.70;;;;;;;;;;5014969;28;20041;-78
2022/02/13 16:33:10;;;;;;;14.07;10.85;;;;;;;;;;5024023;28;20121;-78
2022/02/13 16:35:52;;;;;;;14.32;10.75;;;;;;;;;;5021114;28;20018;-77
2022/02/13 16:38:18;;;;;;;16.55;11.07;;;;;;;;;;5010892;28;20080;-77
2022/02/13 16:40:56;;;;;;;15.20;11.07;;;;;;;;;;5010136;28;20488;-75
2022/02/13 16:43:28;;;;;;;16.40;11.27;;;;;;;;;;5017336;28;20041;-81
2022/02/13 16:49:12;;;;;;;19.52;12.63;;;;;;;;;;4964179;26;20054;-77
2022/02/13 16:51:39;;;;;;;17.77;11.63;;;;;;;;;;4982551;28;20026;-76